Time;durP1;ratioP1;P1;durP2;ratioP2;P2;SDS_P1;SDS_P2;PMS_P1;PMS_P2;Temp;Humidity;BMP_temperature;BMP_pressure;BME280_temperature;BME280_humidity;BME280_pressure;Samples;Min_cycle;Max_cycle;Signal;HPM_P1;HPM_P2
2022/11/16 00:01:54;;;;;;;12.87;9.40;;;;;;;12.09;99.08;97408.44;5021848;27;103219;-62
2022/11/16 00:04:22;;;;;;;9.57;7.30;;;;;;;12.14;98.99;97416.75;5020952;27;102958;-62
2022/11/16 00:06:50;;;;;;;8.03;6.87;;;;;;;12.17;98.86;97416.44;5022364;27;103896;-62
2022/11/16 00:09:25;;;;;;;7.73;5.87;;;;;;;12.20;98.44;97415.31;5030707;27;104342;-62
2022/11/16 00:11:57;;;;;;;7.00;5.97;;;;;;;12.23;98.39;97417.66;5033667;27;103421;-61
2022/11/16 00:14:27;;;;;;;13.70;8.57;;;;;;;12.04;97.88;97423.91;5001849;27;102709;-62
2022/11/16 00:16:55;;;;;;;11.10;8.23;;;;;;;11.92;100.00;97421.63;5020532;27;103879;-62
2022/11/16 00:19:24;;;;;;;9.87;8.00;;;;;;;11.98;100.00;97421.88;5018348;27;104045;-61
2022/11/16 00:21:52;;;;;;;7.67;5.93;;;;;;;12.03;100.00;97434.66;4997580;27;104163;-62
2022/11/16 00:24:23;;;;;;;8.87;5.53;;;;;;;12.08;100.00;97433.22;5021342;27;102657;-62
2022/11/16 00:26:55;;;;;;;7.77;6.63;;;;;;;12.12;99.04;97417.88;5024807;27;104210;-62
2022/11/16 00:29:25;;;;;;;7.83;5.63;;;;;;;12.14;99.28;97429.13;5017925;27;104163;-62
2022/11/16 00:31:54;;;;;;;12.77;8.00;;;;;;;11.57;100.00;97422.38;5000702;27;103116;-62
2022/11/16 00:34:23;;;;;;;10.80;8.20;;;;;;;11.67;100.00;97423.16;5011067;27;102842;-62
2022/11/16 00:36:52;;;;;;;11.63;9.53;;;;;;;11.64;100.00;97424.28;5016572;27;103984;-61
2022/11/16 00:39:22;;;;;;;9.63;8.20;;;;;;;11.64;100.00;97413.72;5015651;27;104014;-61
2022/11/16 00:41:50;;;;;;;9.87;6.90;;;;;;;11.72;100.00;97413.00;5018444;27;103110;-62
2022/11/16 00:44:19;;;;;;;9.70;7.43;;;;;;;11.81;100.00;97404.16;5019606;27;102906;-62
2022/11/16 00:46:47;;;;;;;8.47;7.03;;;;;;;11.81;100.00;97405.97;4999673;27;105293;-62
2022/11/16 00:49:16;;;;;;;7.40;5.73;;;;;;;11.95;100.00;97406.31;5020351;27;103357;-61
2022/11/16 00:51:44;;;;;;;6.93;5.77;;;;;;;11.97;100.00;97406.97;5017450;27;104139;-62
2022/11/16 00:54:11;;;;;;;6.23;4.73;;;;;;;12.03;100.00;97408.19;5002012;27;102914;-62
2022/11/16 00:56:39;;;;;;;4.93;4.43;;;;;;;12.04;99.73;97404.56;4999167;27;103611;-62
2022/11/16 00:59:08;;;;;;;7.73;5.37;;;;;;;11.93;99.20;97408.25;5015798;27;103221;-62
2022/11/16 01:01:39;;;;;;;5.07;4.37;;;;;;;12.03;99.17;97403.72;5022834;27;104293;-62
2022/11/16 01:04:07;;;;;;;6.27;5.00;;;;;;;11.98;98.42;97392.78;5023742;27;102623;-62
2022/11/16 01:06:36;;;;;;;5.83;4.27;;;;;;;11.90;99.56;97389.22;5018238;27;104589;-62
2022/11/16 01:09:05;;;;;;;6.63;4.93;;;;;;;12.01;99.10;97387.16;5019466;27;104254;-62
2022/11/16 01:14:19;;;;;;;8.13;5.57;;;;;;;11.71;99.01;97382.22;5016232;27;102984;-61
2022/11/16 01:16:50;;;;;;;6.90;5.60;;;;;;;11.61;99.54;97376.97;5018971;27;103903;-61
2022/11/16 01:19:20;;;;;;;7.23;5.43;;;;;;;11.67;100.00;97380.00;5016247;27;103764;-62
2022/11/16 01:21:48;;;;;;;6.20;5.60;;;;;;;11.69;100.00;97383.31;4999352;27;103243;-61
2022/11/16 01:24:17;;;;;;;7.13;5.90;;;;;;;11.40;100.00;97372.91;4996980;27;102729;-62
2022/11/16 01:26:45;;;;;;;5.90;5.30;;;;;;;11.67;100.00;97380.84;5016418;27;104027;-61
2022/11/16 01:29:13;;;;;;;6.93;5.03;;;;;;;11.72;99.19;97381.25;5015856;27;104150;-62
2022/11/16 01:31:46;;;;;;;6.50;5.60;;;;;;;11.76;98.06;97379.94;4998311;27;104177;-62
2022/11/16 01:34:15;;;;;;;6.53;5.27;;;;;;;11.77;98.75;97386.91;5000833;27;102816;-61
2022/11/16 01:36:44;;;;;;;9.23;5.77;;;;;;;11.74;98.79;97373.97;5000305;27;103166;-62
2022/11/16 01:39:13;;;;;;;7.63;5.73;;;;;;;11.72;98.96;97370.66;4995710;27;104271;-62
2022/11/16 01:41:46;;;;;;;6.33;5.60;;;;;;;11.65;99.73;97382.78;4997314;27;103834;-61
2022/11/16 01:44:52;;;;;;;5.87;5.13;;;;;;;11.66;100.00;97379.16;5014576;27;102702;-62
2022/11/16 01:47:20;;;;;;;8.03;5.47;;;;;;;11.73;99.11;97380.28;4996403;27;103979;-61
2022/11/16 01:49:53;;;;;;;7.00;5.60;;;;;;;11.54;98.98;97385.63;4998956;27;104216;-62
2022/11/16 01:52:30;;;;;;;6.47;5.13;;;;;;;11.68;98.83;97365.81;5000041;27;105512;-62
2022/11/16 01:54:58;;;;;;;6.07;5.47;;;;;;;11.78;98.04;97366.59;5014499;27;103212;-61
2022/11/16 01:57:33;;;;;;;7.40;5.70;;;;;;;11.61;97.90;97362.91;5024876;27;102730;-62
2022/11/16 02:00:10;;;;;;;5.53;4.70;;;;;;;11.71;98.76;97361.06;5020160;27;104100;-62
2022/11/16 02:02:47;;;;;;;5.00;4.13;;;;;;;11.67;98.60;97362.31;5029443;27;105348;-61
2022/11/16 02:05:45;;;;;;;6.47;5.83;;;;;;;11.72;98.09;97362.72;5015019;27;103978;-62
2022/11/16 02:11:38;;;;;;;6.03;5.43;;;;;;;11.54;99.17;97360.00;4981007;27;103697;-62
2022/11/16 02:14:20;;;;;;;7.17;6.27;;;;;;;11.51;99.53;97355.03;5010093;27;105367;-59
2022/11/16 02:16:58;;;;;;;6.27;5.67;;;;;;;11.64;99.13;97359.97;5032445;27;102644;-59
2022/11/16 02:19:59;;;;;;;9.63;5.87;;;;;;;11.51;99.58;97355.03;5000307;27;104225;-59
2022/11/16 02:22:41;;;;;;;6.83;4.80;;;;;;;11.71;98.81;97352.28;5006195;27;105368;-59
2022/11/16 02:25:21;;;;;;;6.53;4.97;;;;;;;11.83;97.69;97357.22;5018198;27;103201;-59
2022/11/16 02:28:08;;;;;;;7.67;5.77;;;;;;;11.71;97.66;97365.50;5027115;27;102699;-59
2022/11/16 02:30:42;;;;;;;5.63;5.00;;;;;;;11.82;97.91;97352.06;5000698;27;102773;-59
2022/11/16 02:33:13;;;;;;;7.00;5.50;;;;;;;11.79;98.16;97345.25;5006309;27;103738;-59
2022/11/16 02:35:46;;;;;;;7.60;6.13;;;;;;;11.64;98.86;97349.38;5024438;27;104028;-59
2022/11/16 02:38:19;;;;;;;5.67;4.87;;;;;;;11.60;99.34;97358.59;5027902;27;102668;-59
2022/11/16 02:40:53;;;;;;;5.00;4.50;;;;;;;11.77;99.00;97354.31;5012090;27;103718;-60
2022/11/16 02:43:31;;;;;;;7.93;6.33;;;;;;;11.69;98.01;97336.56;5021692;27;105569;-59
2022/11/16 02:46:06;;;;;;;5.83;5.20;;;;;;;11.79;98.69;97347.91;5000585;27;105916;-59
2022/11/16 02:48:37;;;;;;;6.83;5.43;;;;;;;11.84;97.20;97340.38;5016394;27;102651;-59
2022/11/16 02:51:07;;;;;;;5.17;4.63;;;;;;;11.95;98.03;97345.44;5003530;27;102735;-59
2022/11/16 02:53:42;;;;;;;6.73;5.90;;;;;;;11.84;96.94;97350.13;5002732;27;104257;-59
2022/11/16 02:56:12;;;;;;;6.47;5.17;;;;;;;11.98;97.27;97349.59;5019253;27;105451;-59
2022/11/16 02:58:41;;;;;;;6.10;4.40;;;;;;;12.01;97.09;97357.22;4998699;27;102667;-59
2022/11/16 03:01:15;;;;;;;6.07;4.40;;;;;;;12.03;96.82;97352.59;5012868;27;103998;-59
2022/11/16 03:03:49;;;;;;;6.37;5.53;;;;;;;11.95;96.75;97353.38;5000426;27;105820;-58
2022/11/16 03:06:20;;;;;;;5.03;4.43;;;;;;;12.03;96.71;97345.50;4998706;27;103518;-59
2022/11/16 03:08:59;;;;;;;6.67;5.23;;;;;;;12.04;96.33;97347.13;5022285;27;104092;-59
2022/11/16 03:14:22;;;;;;;7.07;5.63;;;;;;;11.97;95.98;97351.41;5031787;27;104026;-59
2022/11/16 03:16:56;;;;;;;5.20;4.70;;;;;;;12.00;96.42;97352.91;4997890;27;104352;-61
2022/11/16 03:19:29;;;;;;;9.57;6.23;;;;;;;11.97;96.65;97346.09;5007500;27;102741;-61
2022/11/16 03:22:06;;;;;;;7.60;5.67;;;;;;;11.79;96.55;97333.88;5017475;27;102633;-61
2022/11/16 03:24:37;;;;;;;5.63;4.70;;;;;;;11.93;97.16;97331.50;5002431;27;104171;-61
2022/11/16 03:27:12;;;;;;;5.13;4.20;;;;;;;11.93;97.21;97328.84;5001900;27;104083;-61
2022/11/16 03:29:46;;;;;;;4.83;4.33;;;;;;;11.94;96.94;97333.16;5005493;27;103055;-61
2022/11/16 03:32:21;;;;;;;4.83;4.33;;;;;;;11.91;97.24;97324.69;5005336;27;103798;-59
2022/11/16 03:34:56;;;;;;;6.50;5.00;;;;;;;11.96;97.31;97325.91;5026850;27;103982;-59
2022/11/16 03:37:29;;;;;;;3.97;3.57;;;;;;;11.91;97.34;97320.25;5000459;27;103219;-59
2022/11/16 03:40:01;;;;;;;7.87;5.30;;;;;;;11.93;97.30;97317.47;5018623;27;102714;-59
2022/11/16 03:42:33;;;;;;;5.43;4.30;;;;;;;11.91;97.42;97309.66;5002655;27;103762;-60
2022/11/16 03:45:02;;;;;;;7.17;5.77;;;;;;;11.76;97.56;97316.44;5002793;27;103311;-59
2022/11/16 03:47:31;;;;;;;6.00;5.10;;;;;;;11.71;98.06;97317.88;4996483;27;105602;-59
2022/11/16 03:49:59;;;;;;;6.53;5.43;;;;;;;11.69;98.81;97310.13;5019131;27;102679;-59
2022/11/16 03:52:28;;;;;;;7.63;5.97;;;;;;;11.65;98.75;97309.53;5015269;27;103973;-58
2022/11/16 03:54:56;;;;;;;9.33;6.07;;;;;;;11.51;99.87;97312.72;5002645;27;105880;-59
2022/11/16 04:01:56;;;;;;;5.33;4.00;;;;;;;11.68;99.15;97329.56;5015167;27;102803;-61
2022/11/16 04:24:14;;;;;;;4.57;4.03;;;;;;;11.78;99.89;97372.72;4961098;27;102857;-62
2022/11/16 04:29:33;;;;;;;3.67;3.37;;;;;;;11.87;98.31;97379.75;5001703;27;104155;-61
2022/11/16 04:37:51;;;;;;;5.03;4.10;;;;;;;11.56;100.00;97362.53;5028119;27;103238;-61
2022/11/16 04:40:28;;;;;;;4.40;3.00;;;;;;;11.78;100.00;97372.72;5017503;27;103643;-61
2022/11/16 04:42:59;;;;;;;4.83;4.30;;;;;;;11.85;100.00;97371.13;5017437;27;103302;-61
2022/11/16 04:48:20;;;;;;;3.97;3.40;;;;;;;11.91;99.70;97373.16;5001986;27;102987;-61
2022/11/16 04:50:52;;;;;;;5.20;3.97;;;;;;;11.78;99.66;97377.16;5000788;27;104231;-62
2022/11/16 04:53:25;;;;;;;6.40;5.50;;;;;;;11.71;99.86;97371.63;5017318;27;103349;-63
2022/11/16 04:56:04;;;;;;;5.20;4.70;;;;;;;11.75;99.90;97375.66;5004436;27;102710;-62
2022/11/16 04:58:33;;;;;;;4.87;4.00;;;;;;;11.86;100.00;97369.31;5021366;27;103819;-63
2022/11/16 05:01:02;;;;;;;3.93;3.53;;;;;;;11.94;99.52;97364.94;5019264;27;104961;-63
2022/11/16 05:03:30;;;;;;;4.17;3.70;;;;;;;11.99;99.28;97365.28;5018334;27;105245;-63
2022/11/16 05:05:58;;;;;;;3.30;3.00;;;;;;;12.03;98.80;97361.38;5001071;27;102751;-63
2022/11/16 05:08:28;;;;;;;5.13;4.63;;;;;;;12.02;98.14;97357.06;5017752;27;103733;-63
2022/11/16 05:10:59;;;;;;;5.97;3.97;;;;;;;11.95;97.95;97350.72;5015298;27;104226;-63
2022/11/16 05:13:27;;;;;;;4.17;3.60;;;;;;;11.89;98.84;97347.84;5020395;27;103116;-63
2022/11/16 05:15:55;;;;;;;3.97;3.20;;;;;;;11.94;98.98;97364.94;5001681;27;102663;-63
2022/11/16 05:18:24;;;;;;;3.93;3.63;;;;;;;11.93;98.92;97360.59;5000702;27;102648;-62
2022/11/16 05:26:29;;;;;;;6.43;4.73;;;;;;;11.57;100.00;97366.81;5019176;27;102992;-62
2022/11/16 05:29:00;;;;;;;6.33;5.10;;;;;;;11.43;100.00;97367.31;5019230;27;103584;-62
2022/11/16 05:31:28;;;;;;;5.20;4.70;;;;;;;11.47;100.00;97379.28;5019927;27;103420;-62
2022/11/16 05:33:56;;;;;;;6.20;4.80;;;;;;;11.65;100.00;97378.31;5005402;27;103413;-62
2022/11/16 05:36:24;;;;;;;6.63;5.07;;;;;;;11.43;100.00;97385.84;5016422;27;104049;-61
2022/11/16 05:38:54;;;;;;;5.57;5.07;;;;;;;11.41;100.00;97377.22;4987539;27;102881;-62
2022/11/16 05:41:27;;;;;;;5.93;5.33;;;;;;;11.33;100.00;97390.34;4991312;27;104083;-62
2022/11/16 05:43:56;;;;;;;4.10;3.70;;;;;;;11.51;100.00;97380.63;5006405;27;104156;-62
2022/11/16 05:46:24;;;;;;;3.63;3.33;;;;;;;11.69;100.00;97383.31;5024776;27;102885;-62
2022/11/16 05:48:55;;;;;;;7.33;5.00;;;;;;;11.66;100.00;97379.16;5004747;27;103948;-62
2022/11/16 05:51:24;;;;;;;4.73;4.03;;;;;;;11.68;100.00;97376.38;5019697;27;104264;-62
2022/11/16 05:53:55;;;;;;;3.70;3.40;;;;;;;11.73;100.00;97384.72;5015616;27;103633;-62
2022/11/16 05:56:24;;;;;;;4.33;3.93;;;;;;;11.64;100.00;97381.13;5000035;28;103290;-62
2022/11/16 05:58:55;;;;;;;6.47;4.50;;;;;;;11.29;100.00;97373.94;5037570;27;102965;-62
2022/11/16 06:01:23;;;;;;;4.40;3.80;;;;;;;11.35;100.00;97380.44;5001211;28;104234;-62
2022/11/16 06:03:51;;;;;;;4.57;4.17;;;;;;;11.55;100.00;97379.38;5009781;27;104362;-62
2022/11/16 06:06:20;;;;;;;4.63;3.87;;;;;;;11.29;100.00;97370.47;5025062;27;102723;-62
2022/11/16 06:08:49;;;;;;;4.00;3.60;;;;;;;11.31;100.00;97377.25;5023968;27;104088;-62
2022/11/16 06:11:24;;;;;;;4.37;3.40;;;;;;;11.36;100.00;97382.13;5005688;27;104045;-62
2022/11/16 06:13:52;;;;;;;4.40;3.33;;;;;;;11.17;100.00;97377.75;5008219;27;105338;-62
2022/11/16 06:16:20;;;;;;;5.10;4.47;;;;;;;11.22;100.00;97379.97;5004664;27;102964;-62
2022/11/16 06:18:48;;;;;;;3.17;2.90;;;;;;;11.43;100.00;97380.53;5025218;27;103859;-62
2022/11/16 06:21:19;;;;;;;4.93;4.10;;;;;;;11.54;100.00;97381.19;5000231;27;103089;-62
2022/11/16 06:23:47;;;;;;;4.47;3.53;;;;;;;11.61;100.00;97387.56;5004414;27;106084;-59
2022/11/16 06:26:16;;;;;;;3.30;3.00;;;;;;;11.61;100.00;97389.38;5001581;27;102870;-59
2022/11/16 06:28:46;;;;;;;4.10;3.10;;;;;;;11.64;100.00;97397.00;5002291;27;103911;-60
2022/11/16 06:31:14;;;;;;;2.70;2.50;;;;;;;11.70;100.00;97407.03;5019104;27;105671;-59
2022/11/16 06:33:42;;;;;;;3.77;2.83;;;;;;;11.80;100.00;97407.78;5000725;27;104172;-59
2022/11/16 06:36:17;;;;;;;3.07;2.77;;;;;;;11.79;100.00;97406.09;4996045;27;103191;-59
2022/11/16 06:38:45;;;;;;;3.77;3.03;;;;;;;11.85;100.00;97407.31;5000197;27;103640;-59
2022/11/16 06:41:13;;;;;;;3.47;3.13;;;;;;;11.86;100.00;97407.19;4998475;27;104957;-59
2022/11/16 06:43:47;;;;;;;3.53;2.63;;;;;;;11.78;100.00;97420.34;4980770;27;105419;-60
2022/11/16 06:46:18;;;;;;;4.93;3.67;;;;;;;11.74;100.00;97424.25;4986189;27;102922;-59
2022/11/16 06:48:47;;;;;;;5.23;3.73;;;;;;;11.78;100.00;97424.78;4998640;27;103829;-60
2022/11/16 06:51:15;;;;;;;3.60;3.20;;;;;;;11.80;100.00;97425.47;4988461;27;103928;-60
2022/11/16 06:53:43;;;;;;;4.53;3.50;;;;;;;11.83;100.00;97426.00;5011578;27;103107;-60
2022/11/16 06:56:14;;;;;;;8.00;4.87;;;;;;;11.76;100.00;97429.41;5016106;27;103357;-60
2022/11/16 06:58:49;;;;;;;4.03;3.13;;;;;;;11.85;100.00;97431.97;4996101;28;103707;-61
2022/11/16 07:01:20;;;;;;;5.43;3.40;;;;;;;11.84;100.00;97432.97;4994788;27;104346;-60
2022/11/16 07:03:49;;;;;;;3.47;2.83;;;;;;;11.87;100.00;97435.34;5000459;27;104211;-60
2022/11/16 07:06:17;;;;;;;4.57;4.17;;;;;;;11.77;100.00;97434.53;5031164;27;103106;-60
2022/11/16 07:08:46;;;;;;;3.00;2.70;;;;;;;11.89;100.00;97435.16;5017076;27;102883;-60
2022/11/16 07:11:19;;;;;;;2.50;2.30;;;;;;;11.92;100.00;97446.28;4999450;27;102749;-60
2022/11/16 07:13:48;;;;;;;3.47;3.00;;;;;;;12.07;100.00;97451.91;4986187;27;105566;-60
2022/11/16 07:16:17;;;;;;;3.40;2.20;;;;;;;12.05;100.00;97454.69;4998289;27;102958;-60
2022/11/16 07:18:55;;;;;;;2.60;2.40;;;;;;;12.14;100.00;97459.09;4996675;27;104279;-60
2022/11/16 07:21:23;;;;;;;3.23;2.47;;;;;;;12.15;100.00;97455.44;5000488;27;103806;-61
2022/11/16 07:23:54;;;;;;;2.30;2.10;;;;;;;12.17;100.00;97463.25;5017413;27;103253;-60
2022/11/16 07:26:23;;;;;;;3.83;2.63;;;;;;;12.19;99.24;97458.63;4993810;27;102769;-60
2022/11/16 07:28:58;;;;;;;2.90;2.57;;;;;;;12.23;99.69;97467.13;4993001;27;103897;-61
2022/11/16 07:31:26;;;;;;;3.77;3.43;;;;;;;12.19;99.97;97466.56;4999734;27;103890;-60
2022/11/16 07:34:28;;;;;;;2.77;2.50;;;;;;;12.20;100.00;97471.75;4987333;27;105515;-63
2022/11/16 07:37:08;;;;;;;3.67;3.03;;;;;;;12.20;99.77;97473.56;4996763;27;102697;-63
2022/11/16 07:39:37;;;;;;;5.30;2.90;;;;;;;12.01;100.00;97468.38;4997167;27;103183;-63
2022/11/16 07:42:10;;;;;;;3.70;2.90;;;;;;;12.21;100.00;97473.38;4999496;27;105977;-63
2022/11/16 07:44:51;;;;;;;3.63;2.80;;;;;;;12.29;99.97;97477.09;4994852;27;105332;-63
2022/11/16 07:47:19;;;;;;;3.43;2.20;;;;;;;12.49;100.00;97478.63;5005716;27;102766;-64
2022/11/16 07:49:47;;;;;;;2.70;2.30;;;;;;;12.41;98.80;97481.19;5012628;27;102799;-63
2022/11/16 07:52:19;;;;;;;2.60;2.23;;;;;;;12.46;98.54;97486.88;5020734;27;103195;-63
2022/11/16 07:54:55;;;;;;;2.37;1.97;;;;;;;12.50;98.25;97485.56;5001174;27;104146;-63
2022/11/16 07:57:25;;;;;;;1.97;1.70;;;;;;;12.58;98.27;97483.00;5000659;27;102902;-63
2022/11/16 07:59:56;;;;;;;2.40;2.00;;;;;;;12.62;97.54;97479.06;5003507;27;103731;-61
2022/11/16 08:02:24;;;;;;;2.10;1.80;;;;;;;12.70;97.19;97487.09;5017806;27;104136;-60
2022/11/16 08:04:52;;;;;;;2.20;2.03;;;;;;;12.68;97.18;97487.25;5014357;27;103227;-60
2022/11/16 08:07:25;;;;;;;2.13;1.63;;;;;;;12.72;96.94;97480.63;5015411;27;102731;-60
2022/11/16 08:09:56;;;;;;;2.47;1.50;;;;;;;12.68;95.88;97484.59;5004784;27;103455;-60
2022/11/16 08:12:24;;;;;;;1.40;1.27;;;;;;;12.68;94.75;97491.72;5002398;27;104435;-60
2022/11/16 08:14:53;;;;;;;1.33;1.23;;;;;;;12.72;95.37;97495.69;5002016;27;105471;-60
2022/11/16 08:17:22;;;;;;;3.13;1.30;;;;;;;12.59;95.90;97492.63;5009815;27;102664;-61
2022/11/16 08:19:52;;;;;;;1.87;1.20;;;;;;;12.63;94.84;97481.56;5004842;27;103605;-61
2022/11/16 08:22:20;;;;;;;2.37;1.40;;;;;;;12.75;95.08;97495.41;5007216;27;103315;-60
2022/11/16 08:24:48;;;;;;;2.13;1.20;;;;;;;13.00;94.15;97485.81;5017093;27;103389;-60
2022/11/16 08:27:17;;;;;;;1.30;1.17;;;;;;;13.03;93.37;97489.00;5010813;27;102791;-60
2022/11/16 08:29:50;;;;;;;2.23;1.53;;;;;;;12.89;91.97;97491.34;5000765;27;103699;-60
2022/11/16 08:32:18;;;;;;;2.17;1.10;;;;;;;12.92;92.61;97491.06;5020076;27;103404;-61
2022/11/16 08:34:47;;;;;;;1.47;1.07;;;;;;;13.21;91.23;97491.63;5022969;27;104356;-60
2022/11/16 08:37:16;;;;;;;1.70;1.10;;;;;;;13.36;90.96;97496.19;4997708;27;103215;-60
2022/11/16 08:39:45;;;;;;;2.43;1.20;;;;;;;13.58;89.86;97489.53;5000291;27;102684;-61
2022/11/16 08:42:13;;;;;;;1.33;0.97;;;;;;;13.50;91.53;97480.72;5009608;27;103318;-60
2022/11/16 08:44:46;;;;;;;2.50;1.20;;;;;;;13.43;90.08;97490.28;5006705;27;104182;-60
2022/11/16 08:47:16;;;;;;;1.23;0.70;;;;;;;13.67;88.50;97487.75;5002418;27;102792;-63
2022/11/16 08:49:49;;;;;;;1.30;0.80;;;;;;;13.64;89.05;97494.19;5019549;27;102851;-63
2022/11/16 08:52:22;;;;;;;6.10;1.23;;;;;;;13.62;87.89;97495.34;5016918;27;103470;-63
2022/11/16 08:54:53;;;;;;;2.00;1.30;;;;;;;13.47;88.19;97496.94;5000057;27;103272;-60
2022/11/16 08:57:23;;;;;;;2.57;1.37;;;;;;;13.42;88.51;97521.25;5025457;27;102890;-63
2022/11/16 08:59:56;;;;;;;2.17;0.93;;;;;;;13.71;88.05;97505.00;5022807;27;102755;-63
2022/11/16 09:02:24;;;;;;;2.60;1.17;;;;;;;13.78;88.99;97506.06;5025280;27;103291;-63
2022/11/16 09:04:54;;;;;;;2.43;0.90;;;;;;;13.62;89.30;97508.59;5023251;27;103233;-63
2022/11/16 09:07:22;;;;;;;1.67;1.00;;;;;;;13.88;88.08;97517.38;5030394;27;102705;-63
2022/11/16 09:09:50;;;;;;;2.10;1.10;;;;;;;14.03;87.64;97512.28;5020659;27;103707;-63
2022/11/16 09:12:18;;;;;;;2.87;1.27;;;;;;;13.78;86.66;97517.47;5005997;27;104416;-63
2022/11/16 09:14:46;;;;;;;1.17;1.07;;;;;;;14.13;88.16;97511.16;5024116;27;104259;-63
2022/11/16 09:17:14;;;;;;;1.90;0.80;;;;;;;14.69;84.85;97507.81;5024847;27;102889;-63
2022/11/16 09:19:49;;;;;;;1.10;0.90;;;;;;;14.50;86.75;97510.78;5026260;27;102788;-63
2022/11/16 09:22:21;;;;;;;4.97;1.00;;;;;;;14.72;82.70;97501.31;5033581;27;104044;-63
2022/11/16 09:24:49;;;;;;;1.73;1.00;;;;;;;14.81;82.38;97510.97;5025673;27;103195;-63
2022/11/16 09:27:19;;;;;;;1.27;0.83;;;;;;;15.07;80.70;97495.69;5025235;27;102681;-63
2022/11/16 09:29:46;;;;;;;2.97;1.20;;;;;;;14.74;81.27;97500.16;5031681;27;103821;-63
2022/11/16 09:32:14;;;;;;;1.77;0.80;;;;;;;15.27;80.33;97502.28;5008285;27;104554;-63
2022/11/16 09:34:42;;;;;;;2.80;1.20;;;;;;;15.36;79.61;97509.28;5028279;27;103187;-63
2022/11/16 09:37:10;;;;;;;2.37;1.20;;;;;;;15.55;78.44;97511.59;5025949;27;103770;-63
2022/11/16 09:39:39;;;;;;;2.00;0.80;;;;;;;15.82;77.70;97506.84;5030352;27;103580;-63
2022/11/16 09:42:23;;;;;;;4.00;1.10;;;;;;;15.48;75.94;97510.63;5032351;27;103740;-63
2022/11/16 09:45:03;;;;;;;2.33;0.97;;;;;;;15.29;76.82;97500.31;5025095;27;103546;-63
2022/11/16 09:47:50;;;;;;;2.20;1.10;;;;;;;15.11;77.27;97515.63;5022621;27;103036;-63
2022/11/16 09:50:46;;;;;;;2.03;0.90;;;;;;;15.00;76.98;97511.47;5023710;27;102911;-63
2022/11/16 09:53:28;;;;;;;3.63;1.10;;;;;;;14.91;77.96;97516.94;5016163;27;104322;-64
2022/11/16 09:56:02;;;;;;;2.77;0.90;;;;;;;14.84;79.24;97526.59;5022655;27;103223;-64
2022/11/16 09:58:40;;;;;;;3.33;1.23;;;;;;;14.68;77.05;97522.09;5028715;27;102623;-64
2022/11/16 10:01:20;;;;;;;0.93;0.90;;;;;;;15.15;76.34;97516.97;5018005;27;103044;-64
2022/11/16 10:03:53;;;;;;;3.17;0.83;;;;;;;14.63;77.58;97523.56;5006698;27;104205;-64
2022/11/16 10:06:26;;;;;;;1.40;0.97;;;;;;;14.51;78.48;97518.56;5025983;27;103212;-64
2022/11/16 10:08:56;;;;;;;1.77;1.00;;;;;;;14.74;79.63;97509.97;5022965;27;102649;-64
2022/11/16 10:11:55;;;;;;;1.67;0.77;;;;;;;14.80;77.93;97519.94;5023992;27;103967;-61
2022/11/16 10:14:49;;;;;;;2.13;0.83;;;;;;;14.55;79.84;97511.13;5023416;27;103950;-61
2022/11/16 10:17:26;;;;;;;3.73;0.90;;;;;;;14.76;80.29;97508.81;5030001;27;103220;-61
2022/11/16 10:19:56;;;;;;;5.37;1.10;;;;;;;15.13;77.64;97505.63;5031176;27;102692;-61
2022/11/16 10:22:38;;;;;;;3.27;0.83;;;;;;;15.23;77.75;97501.00;5029463;27;102689;-61
2022/11/16 10:25:15;;;;;;;2.17;1.10;;;;;;;15.15;78.76;97508.97;5022611;27;103987;-61
2022/11/16 10:28:17;;;;;;;5.60;1.60;;;;;;;15.02;78.69;97503.31;5001885;27;104511;-61
2022/11/16 10:30:52;;;;;;;2.83;1.30;;;;;;;15.02;79.20;97498.00;5002102;27;103286;-61
2022/11/16 10:33:25;;;;;;;4.80;1.47;;;;;;;15.09;78.61;97499.00;5028343;27;102945;-61
2022/11/16 10:35:53;;;;;;;1.60;1.50;;;;;;;14.99;79.05;97490.34;5020797;27;103282;-61
2022/11/16 10:38:24;;;;;;;2.17;1.20;;;;;;;14.72;78.81;97494.19;5024188;27;104087;-61
2022/11/16 10:40:55;;;;;;;2.63;0.97;;;;;;;14.74;78.88;97484.22;5024534;27;103319;-62
2022/11/16 10:43:28;;;;;;;3.17;1.17;;;;;;;14.86;79.68;97476.75;5026913;27;103719;-61
2022/11/16 10:46:02;;;;;;;2.53;1.40;;;;;;;15.03;79.67;97476.56;5016437;27;103901;-61
2022/11/16 10:48:38;;;;;;;3.33;1.17;;;;;;;15.07;78.22;97480.53;5024820;27;103193;-61
2022/11/16 10:51:08;;;;;;;4.50;1.20;;;;;;;15.04;78.27;97469.44;5023286;27;102895;-61
2022/11/16 10:53:38;;;;;;;2.40;1.03;;;;;;;14.76;76.86;97473.44;5023003;27;104060;-61
2022/11/16 10:56:19;;;;;;;1.67;0.87;;;;;;;14.83;76.15;97472.59;5003010;27;104137;-62
2022/11/16 10:58:55;;;;;;;2.37;1.10;;;;;;;14.62;76.02;97471.44;5029009;27;103368;-61
2022/11/16 11:01:32;;;;;;;1.63;0.90;;;;;;;14.61;76.27;97462.63;5021772;27;102755;-61
2022/11/16 11:04:15;;;;;;;1.07;0.70;;;;;;;14.60;76.77;97468.09;5015405;27;103990;-61
2022/11/16 11:06:44;;;;;;;1.57;0.70;;;;;;;14.90;76.08;97462.13;5009290;27;104331;-61
2022/11/16 11:09:20;;;;;;;1.63;0.83;;;;;;;14.88;75.49;97464.94;5021735;27;103259;-61
2022/11/16 11:15:00;;;;;;;3.73;1.00;;;;;;;14.91;75.25;97461.09;5019724;27;104304;-61
2022/11/16 11:17:28;;;;;;;2.80;0.80;;;;;;;14.89;77.46;97449.81;5001854;27;104295;-61
2022/11/16 11:20:03;;;;;;;1.50;0.80;;;;;;;15.00;76.33;97450.31;5022310;27;103257;-61
2022/11/16 11:22:31;;;;;;;1.40;0.90;;;;;;;15.05;75.34;97449.78;5027472;27;103066;-61
2022/11/16 11:25:02;;;;;;;1.27;0.90;;;;;;;15.03;75.13;97454.47;5028979;27;102614;-61
2022/11/16 11:27:33;;;;;;;1.67;0.90;;;;;;;14.29;78.15;97458.06;5005084;27;105021;-61
2022/11/16 11:30:06;;;;;;;1.70;0.70;;;;;;;14.59;77.21;97456.66;5027484;27;103163;-61
2022/11/16 11:32:40;;;;;;;2.97;0.90;;;;;;;14.88;75.87;97453.47;5022172;27;102674;-62
2022/11/16 11:35:22;;;;;;;1.97;0.90;;;;;;;15.02;77.42;97440.31;5032325;27;103185;-61
2022/11/16 11:37:54;;;;;;;2.40;0.73;;;;;;;14.57;72.09;97436.56;5024660;27;103826;-61
2022/11/16 11:40:24;;;;;;;2.53;0.80;;;;;;;14.82;74.51;97432.88;5022062;27;103265;-62
2022/11/16 11:42:57;;;;;;;1.40;1.00;;;;;;;14.57;76.79;97433.91;5021424;27;102784;-61
2022/11/16 11:45:34;;;;;;;1.53;0.93;;;;;;;14.51;74.91;97428.22;5020599;27;103857;-61
2022/11/16 11:48:05;;;;;;;3.73;1.00;;;;;;;14.86;75.75;97434.19;5026012;27;103265;-61
2022/11/16 11:50:42;;;;;;;2.47;0.90;;;;;;;14.81;76.48;97436.53;5033787;27;103296;-61
2022/11/16 11:53:22;;;;;;;2.73;0.90;;;;;;;14.45;77.99;97442.19;5004978;27;102667;-61
2022/11/16 11:55:57;;;;;;;3.27;1.60;;;;;;;14.45;76.15;97442.19;5024470;27;103937;-61
2022/11/16 11:58:31;;;;;;;3.20;1.37;;;;;;;14.71;73.08;97446.53;5027953;27;104119;-62
2022/11/16 12:01:36;;;;;;;2.77;1.20;;;;;;;14.68;75.29;97441.53;5021522;27;103216;-61
2022/11/16 12:04:28;;;;;;;1.40;0.80;;;;;;;15.03;74.91;97441.16;4987912;27;102725;-62
2022/11/16 12:07:01;;;;;;;1.53;1.13;;;;;;;15.47;74.15;97439.75;5000750;27;102798;-61
2022/11/16 12:09:40;;;;;;;2.00;1.47;;;;;;;16.69;70.15;97429.25;4998993;27;104537;-61
2022/11/16 12:12:25;;;;;;;0.80;0.70;;;;;;;15.00;69.57;97430.84;5023136;27;104539;-61
2022/11/16 12:15:04;;;;;;;1.83;0.80;;;;;;;14.94;72.20;97424.38;5000787;27;103021;-61
2022/11/16 12:17:46;;;;;;;1.80;0.70;;;;;;;15.89;69.80;97417.28;5019780;27;103857;-61
2022/11/16 12:20:27;;;;;;;0.77;0.70;;;;;;;15.24;71.04;97412.16;5001510;27;104184;-61
2022/11/16 12:23:13;;;;;;;2.13;1.03;;;;;;;16.67;68.06;97412.63;5016500;27;103110;-61
2022/11/16 12:25:50;;;;;;;3.03;1.00;;;;;;;17.51;66.65;97417.59;5021387;27;103363;-61
2022/11/16 12:28:31;;;;;;;1.70;0.63;;;;;;;17.84;64.08;97404.69;5013371;27;103090;-62
2022/11/16 12:31:19;;;;;;;1.97;0.97;;;;;;;17.85;63.35;97407.16;5014508;27;103660;-62
2022/11/16 12:33:58;;;;;;;2.17;0.90;;;;;;;18.10;63.35;97401.50;5018826;27;103186;-61
2022/11/16 12:36:39;;;;;;;1.40;0.70;;;;;;;17.65;62.22;97403.44;5024324;27;102586;-62
2022/11/16 12:39:23;;;;;;;1.23;0.80;;;;;;;17.16;62.45;97402.31;5015274;27;104890;-62
2022/11/16 12:42:16;;;;;;;3.55;0.80;;;;;;;16.94;63.25;97405.88;5024377;27;103052;-62